createdAt,value
2023-03-27T00:00:18.868Z,23.87
2023-03-27T00:00:48.888Z,23.89
2023-03-27T00:01:18.878Z,23.88
2023-03-27T00:01:48.927Z,23.88
2023-03-27T00:02:18.988Z,23.87
2023-03-27T00:02:49.154Z,23.87
2023-03-27T00:03:19.127Z,23.91
2023-03-27T00:03:49.279Z,23.91
2023-03-27T00:04:19.193Z,23.89
2023-03-27T00:04:49.237Z,23.88
2023-03-27T00:05:19.248Z,23.85
2023-03-27T00:05:49.253Z,23.88
2023-03-27T00:06:19.255Z,23.88
2023-03-27T00:06:49.270Z,23.91
2023-03-27T00:07:19.270Z,23.89
2023-03-27T00:07:49.271Z,23.91
2023-03-27T00:08:19.307Z,23.91
2023-03-27T00:08:49.290Z,23.89
2023-03-27T00:09:19.308Z,23.87
2023-03-27T00:09:49.319Z,23.88
2023-03-27T00:10:19.317Z,23.88
2023-03-27T00:10:49.318Z,23.85
2023-03-27T00:11:49.313Z,23.89
2023-03-27T00:12:19.323Z,23.91
2023-03-27T00:12:49.335Z,23.87
2023-03-27T00:13:19.345Z,23.88
2023-03-27T00:13:50.708Z,23.88
2023-03-27T00:14:19.429Z,23.87
2023-03-27T00:14:49.429Z,23.88
2023-03-27T00:15:19.445Z,23.91
2023-03-27T00:15:49.447Z,23.87
2023-03-27T00:16:19.501Z,23.92
2023-03-27T00:16:49.541Z,23.88
2023-03-27T00:17:19.547Z,23.88
2023-03-27T00:17:49.596Z,23.87
2023-03-27T00:18:19.585Z,23.87
2023-03-27T00:18:49.621Z,23.85
2023-03-27T00:19:19.642Z,23.87
2023-03-27T00:19:49.627Z,23.91
2023-03-27T00:20:49.710Z,23.91
2023-03-27T00:21:19.724Z,23.85
2023-03-27T00:21:49.731Z,23.88
2023-03-27T00:22:19.736Z,23.88
2023-03-27T00:22:49.753Z,23.88
2023-03-27T00:23:19.746Z,23.91
2023-03-27T00:23:49.763Z,23.89
2023-03-27T00:24:19.763Z,23.89
2023-03-27T00:24:49.800Z,23.88
2023-03-27T00:25:19.785Z,23.88
2023-03-27T00:26:19.866Z,23.85
2023-03-27T00:26:49.867Z,23.84
2023-03-27T00:27:19.876Z,23.85
2023-03-27T00:27:49.869Z,23.84
2023-03-27T00:28:19.882Z,23.81
2023-03-27T00:28:49.896Z,23.83
2023-03-27T00:29:19.899Z,23.80
2023-03-27T00:29:49.904Z,23.83
2023-03-27T00:30:19.918Z,23.83
2023-03-27T00:30:49.961Z,23.84
2023-03-27T00:31:20.002Z,23.84
2023-03-27T00:31:50.009Z,23.87
2023-03-27T00:32:20.036Z,23.83
2023-03-27T00:32:50.039Z,23.85
2023-03-27T00:33:20.051Z,23.85
2023-03-27T00:33:50.053Z,23.85
2023-03-27T00:34:20.061Z,23.83
2023-03-27T00:34:50.064Z,23.80
2023-03-27T00:35:20.090Z,23.80
2023-03-27T00:35:50.113Z,23.78
2023-03-27T00:36:20.122Z,23.74
2023-03-27T00:36:50.131Z,23.74
2023-03-27T00:37:20.138Z,23.76
2023-03-27T00:37:50.224Z,23.78
2023-03-27T00:38:20.310Z,23.76
2023-03-27T00:38:50.384Z,23.76
2023-03-27T00:39:20.501Z,23.77
2023-03-27T00:39:50.573Z,23.77
2023-03-27T00:40:20.683Z,23.77
2023-03-27T00:40:50.965Z,23.78
2023-03-27T00:41:20.913Z,23.78
2023-03-27T00:41:50.916Z,23.81
2023-03-27T00:42:21.016Z,23.80
2023-03-27T00:42:51.089Z,23.77
2023-03-27T00:43:21.164Z,23.77
2023-03-27T00:43:51.242Z,23.74
2023-03-27T00:44:21.320Z,23.78
2023-03-27T00:44:51.412Z,23.77
2023-03-27T00:45:21.495Z,23.80
2023-03-27T00:45:51.623Z,23.80
2023-03-27T00:46:21.707Z,23.76
2023-03-27T00:46:51.777Z,23.77
2023-03-27T00:47:21.863Z,23.78
2023-03-27T00:47:51.992Z,23.77
2023-03-27T00:48:21.980Z,23.77
2023-03-27T00:48:51.984Z,23.80
2023-03-27T00:49:21.996Z,23.76
2023-03-27T00:49:52.006Z,23.76
2023-03-27T00:50:22.011Z,23.76
2023-03-27T00:50:52.020Z,23.76
2023-03-27T00:51:22.032Z,23.78
2023-03-27T00:51:52.027Z,23.80
2023-03-27T00:52:22.041Z,23.78
2023-03-27T00:52:52.047Z,23.80
2023-03-27T00:53:22.063Z,23.80
2023-03-27T00:53:52.057Z,23.81
2023-03-27T00:54:22.207Z,23.78
2023-03-27T00:54:52.111Z,23.76
2023-03-27T00:55:52.232Z,23.78
2023-03-27T00:56:22.213Z,23.76
2023-03-27T00:57:22.308Z,23.80
2023-03-27T00:57:52.314Z,23.81
2023-03-27T00:58:22.315Z,23.80
2023-03-27T00:58:52.324Z,23.81
2023-03-27T00:59:22.354Z,23.83
2023-03-27T00:59:52.341Z,23.81
2023-03-27T01:00:22.370Z,23.80
2023-03-27T01:00:52.364Z,23.78
2023-03-27T01:01:22.389Z,23.77
2023-03-27T01:02:22.509Z,23.76
2023-03-27T01:02:52.631Z,23.77
2023-03-27T01:03:22.759Z,23.73
2023-03-27T01:03:52.806Z,23.74
2023-03-27T01:04:22.727Z,23.77
2023-03-27T01:04:52.739Z,23.78
2023-03-27T01:05:22.730Z,23.74
2023-03-27T01:05:52.742Z,23.74
2023-03-27T01:06:22.744Z,23.77
2023-03-27T01:06:52.760Z,23.76
2023-03-27T01:07:22.757Z,23.77
2023-03-27T01:07:59.981Z,23.74
2023-03-27T01:08:22.865Z,23.71
2023-03-27T01:08:52.880Z,23.73
2023-03-27T01:09:22.871Z,23.71
2023-03-27T01:09:52.890Z,23.74
2023-03-27T01:10:22.894Z,23.74
2023-03-27T01:10:52.904Z,23.73
2023-03-27T01:11:22.930Z,23.73
2023-03-27T01:11:52.917Z,23.73
2023-03-27T01:12:53.003Z,23.74
2023-03-27T01:13:23.014Z,23.73
2023-03-27T01:13:53.021Z,23.70
2023-03-27T01:14:23.065Z,23.70
2023-03-27T01:14:53.089Z,23.71
2023-03-27T01:15:23.089Z,23.70
2023-03-27T01:15:53.136Z,23.70
2023-03-27T01:16:23.138Z,23.68
2023-03-27T01:16:53.129Z,23.71
2023-03-27T01:17:23.191Z,23.71
2023-03-27T01:17:53.318Z,23.67
2023-03-27T01:18:23.302Z,23.70
2023-03-27T01:18:53.298Z,23.68
2023-03-27T01:19:23.302Z,23.68
2023-03-27T01:19:53.317Z,23.67
2023-03-27T01:20:23.315Z,23.67
2023-03-27T01:20:53.370Z,23.68
2023-03-27T01:21:23.432Z,23.70
2023-03-27T01:21:53.431Z,23.70
2023-03-27T01:22:23.446Z,23.68
2023-03-27T01:22:53.456Z,23.67
2023-03-27T01:23:35.949Z,23.67
2023-03-27T01:23:59.502Z,23.70
2023-03-27T01:24:23.671Z,23.67
2023-03-27T01:24:53.681Z,23.67
2023-03-27T01:25:23.701Z,23.65
2023-03-27T01:25:53.703Z,23.67
2023-03-27T01:26:53.834Z,23.67
2023-03-27T01:27:23.815Z,23.67
2023-03-27T01:28:23.915Z,23.70
2023-03-27T01:28:53.920Z,23.65
2023-03-27T01:29:23.930Z,23.65
2023-03-27T01:29:53.950Z,23.67
2023-03-27T01:30:23.957Z,23.65
2023-03-27T01:30:54.176Z,23.65
2023-03-27T01:31:23.971Z,23.65
2023-03-27T01:31:54.114Z,23.67
2023-03-27T01:32:24.031Z,23.70
2023-03-27T01:32:54.118Z,23.70
2023-03-27T01:33:24.127Z,23.70
2023-03-27T01:33:54.119Z,23.65
2023-03-27T01:34:24.128Z,23.67
2023-03-27T01:35:01.792Z,23.67
2023-03-27T01:35:24.277Z,23.68
2023-03-27T01:35:54.364Z,23.67
2023-03-27T01:36:24.380Z,23.65
2023-03-27T01:36:54.377Z,23.62
2023-03-27T01:37:24.384Z,23.62
2023-03-27T01:37:54.492Z,23.64
2023-03-27T01:38:24.571Z,23.62
2023-03-27T01:38:54.658Z,23.60
2023-03-27T01:39:24.744Z,23.62
2023-03-27T01:39:54.843Z,23.60
2023-03-27T01:40:24.911Z,23.61
2023-03-27T01:40:55.195Z,23.62
2023-03-27T01:41:25.101Z,23.62
2023-03-27T01:41:55.182Z,23.62
2023-03-27T01:42:25.298Z,23.61
2023-03-27T01:42:55.368Z,23.64
2023-03-27T01:43:25.447Z,23.61
2023-03-27T01:43:55.529Z,23.62
2023-03-27T01:44:25.623Z,23.62
2023-03-27T01:44:55.699Z,23.64
2023-03-27T01:45:25.784Z,23.62
2023-03-27T01:45:55.859Z,23.67
2023-03-27T01:46:26.024Z,23.61
2023-03-27T01:46:56.076Z,23.62
2023-03-27T01:47:26.075Z,23.67
2023-03-27T01:47:56.086Z,23.68
2023-03-27T01:48:26.085Z,23.65
2023-03-27T01:48:56.086Z,23.65
2023-03-27T01:49:26.091Z,23.65
2023-03-27T01:49:56.140Z,23.62
2023-03-27T01:50:26.143Z,23.64
2023-03-27T01:50:56.369Z,23.61
2023-03-27T01:51:26.226Z,23.62
2023-03-27T01:51:56.239Z,23.60
2023-03-27T01:52:26.245Z,23.64
2023-03-27T01:52:56.251Z,23.62
2023-03-27T01:53:26.257Z,23.62
2023-03-27T01:53:56.286Z,23.61
2023-03-27T01:54:26.287Z,23.62
2023-03-27T01:54:56.298Z,23.60
2023-03-27T01:55:26.302Z,23.61
2023-03-27T01:55:56.314Z,23.60
2023-03-27T01:56:26.378Z,23.60
2023-03-27T01:56:56.424Z,23.61
2023-03-27T01:57:26.479Z,23.58
2023-03-27T01:57:56.496Z,23.58
2023-03-27T01:58:26.479Z,23.57
2023-03-27T01:59:26.570Z,23.56
2023-03-27T01:59:56.578Z,23.58
2023-03-27T02:00:26.692Z,23.61
2023-03-27T02:00:56.838Z,23.60
2023-03-27T02:01:26.884Z,23.61
2023-03-27T02:01:56.914Z,23.61
2023-03-27T02:02:26.947Z,23.60
2023-03-27T02:02:57.022Z,23.62
2023-03-27T02:03:27.045Z,23.60
2023-03-27T02:03:57.043Z,23.56
2023-03-27T02:04:27.097Z,23.61
2023-03-27T02:04:57.135Z,23.58
2023-03-27T02:05:27.153Z,23.58
2023-03-27T02:05:57.158Z,23.58
2023-03-27T02:06:27.172Z,23.61
2023-03-27T02:06:57.187Z,23.60
2023-03-27T02:07:27.195Z,23.58
2023-03-27T02:07:57.193Z,23.58
2023-03-27T02:08:27.192Z,23.58
2023-03-27T02:08:57.193Z,23.54
2023-03-27T02:09:27.204Z,23.57
2023-03-27T02:09:57.216Z,23.54
2023-03-27T02:10:27.225Z,23.56
2023-03-27T02:10:57.509Z,23.56
2023-03-27T02:11:27.326Z,23.57
2023-03-27T02:11:57.323Z,23.57
2023-03-27T02:12:27.329Z,23.56
2023-03-27T02:12:57.334Z,23.53
2023-03-27T02:13:27.357Z,23.56
2023-03-27T02:13:57.339Z,23.60
2023-03-27T02:14:57.435Z,23.56
2023-03-27T02:15:27.536Z,23.54
2023-03-27T02:15:57.554Z,23.56
2023-03-27T02:16:27.592Z,23.54
2023-03-27T02:16:57.584Z,23.53
2023-03-27T02:17:27.603Z,23.54
2023-03-27T02:17:57.681Z,23.54
2023-03-27T02:18:27.689Z,23.53
2023-03-27T02:18:57.702Z,23.54
2023-03-27T02:19:27.709Z,23.54
2023-03-27T02:19:57.715Z,23.53
2023-03-27T02:20:27.715Z,23.53
2023-03-27T02:20:57.926Z,23.53
2023-03-27T02:21:27.805Z,23.53
2023-03-27T02:21:57.798Z,23.53
2023-03-27T02:22:38.334Z,23.56
2023-03-27T02:22:57.912Z,23.53
2023-03-27T02:23:27.915Z,23.53
2023-03-27T02:23:57.926Z,23.53
2023-03-27T02:24:27.930Z,23.53
2023-03-27T02:24:57.926Z,23.53
2023-03-27T02:25:27.932Z,23.51
2023-03-27T02:25:57.942Z,23.51
2023-03-27T02:26:27.946Z,23.53
2023-03-27T02:26:57.953Z,23.53
2023-03-27T02:27:27.949Z,23.51
2023-03-27T02:27:57.969Z,23.54
2023-03-27T02:28:27.978Z,23.56
2023-03-27T02:28:58.003Z,23.53
2023-03-27T02:29:27.984Z,23.54
2023-03-27T02:30:28.079Z,23.54
2023-03-27T02:31:06.934Z,23.56
2023-03-27T02:31:33.219Z,23.54
2023-03-27T02:32:37.546Z,23.50
2023-03-27T02:33:07.531Z,23.53
2023-03-27T02:33:37.585Z,23.53
2023-03-27T02:34:07.647Z,23.53
2023-03-27T02:34:37.681Z,23.53
2023-03-27T02:35:07.726Z,23.54
2023-03-27T02:35:37.780Z,23.53
2023-03-27T02:36:09.950Z,23.56
2023-03-27T02:36:37.830Z,23.57
2023-03-27T02:37:07.864Z,23.57
2023-03-27T02:37:37.910Z,23.54
2023-03-27T02:38:07.955Z,23.54
2023-03-27T02:38:37.989Z,23.57
2023-03-27T02:39:08.039Z,23.54
2023-03-27T02:39:38.097Z,23.57
2023-03-27T02:40:08.120Z,23.53
2023-03-27T02:40:39.994Z,23.56
2023-03-27T02:41:08.204Z,23.51
2023-03-27T02:41:38.249Z,23.49
2023-03-27T02:42:08.307Z,23.49
2023-03-27T02:42:38.392Z,23.49
2023-03-27T02:43:08.526Z,23.53
2023-03-27T02:43:38.485Z,23.53
2023-03-27T02:44:08.600Z,23.51
2023-03-27T02:44:46.807Z,23.51
2023-03-27T02:45:08.738Z,23.50
2023-03-27T02:45:38.865Z,23.50
2023-03-27T02:46:09.159Z,23.49
2023-03-27T02:46:39.004Z,23.50
2023-03-27T02:47:09.102Z,23.51
2023-03-27T02:47:39.214Z,23.53
2023-03-27T02:48:09.378Z,23.54
2023-03-27T02:48:39.231Z,23.58
2023-03-27T02:49:09.327Z,23.58
2023-03-27T02:49:39.414Z,23.58
2023-03-27T02:50:09.500Z,23.54
2023-03-27T02:50:39.577Z,23.53
2023-03-27T02:51:09.687Z,23.53
2023-03-27T02:51:39.770Z,23.51
2023-03-27T02:52:09.858Z,23.54
2023-03-27T02:52:39.923Z,23.54
2023-03-27T02:53:10.010Z,23.53
2023-03-27T02:53:40.100Z,23.54
2023-03-27T02:54:10.196Z,23.54
2023-03-27T02:54:40.283Z,23.51
2023-03-27T02:55:10.393Z,23.49
2023-03-27T02:55:40.454Z,23.47
2023-03-27T02:56:10.539Z,23.49
2023-03-27T02:56:40.655Z,23.51
2023-03-27T02:57:10.753Z,23.49
2023-03-27T02:57:40.807Z,23.49
2023-03-27T02:58:10.882Z,23.47
2023-03-27T02:58:40.977Z,23.50
2023-03-27T02:59:11.088Z,23.49
2023-03-27T02:59:41.158Z,23.49
2023-03-27T03:00:11.233Z,23.50
2023-03-27T03:00:41.319Z,23.51
2023-03-27T03:01:11.427Z,23.50
2023-03-27T03:01:41.531Z,23.49
2023-03-27T03:02:11.526Z,23.49
2023-03-27T03:02:41.672Z,23.51
2023-03-27T03:03:11.755Z,23.49
2023-03-27T03:03:41.787Z,23.49
2023-03-27T03:04:11.769Z,23.49
2023-03-27T03:04:41.903Z,23.47
2023-03-27T03:05:11.869Z,23.50
2023-03-27T03:05:41.972Z,23.50
2023-03-27T03:06:12.041Z,23.50
2023-03-27T03:06:42.117Z,23.50
2023-03-27T03:07:12.195Z,23.47
2023-03-27T03:07:42.281Z,23.47
2023-03-27T03:08:12.366Z,23.49
2023-03-27T03:08:42.439Z,23.47
2023-03-27T03:09:12.513Z,23.47
2023-03-27T03:09:42.611Z,23.44
2023-03-27T03:10:12.699Z,23.49
2023-03-27T03:10:42.774Z,23.46
2023-03-27T03:11:12.851Z,23.50
2023-03-27T03:11:42.933Z,23.51
2023-03-27T03:12:13.015Z,23.49
2023-03-27T03:12:43.106Z,23.49
2023-03-27T03:13:13.180Z,23.49
2023-03-27T03:13:43.242Z,23.51
2023-03-27T03:14:13.358Z,23.51
2023-03-27T03:14:43.413Z,23.50
2023-03-27T03:15:13.497Z,23.50
2023-03-27T03:15:43.575Z,23.51
2023-03-27T03:16:13.660Z,23.53
2023-03-27T03:16:43.762Z,23.54
2023-03-27T03:17:13.746Z,23.53
2023-03-27T03:17:43.856Z,23.54
2023-03-27T03:18:13.915Z,23.53
2023-03-27T03:18:44.003Z,23.56
2023-03-27T03:19:14.078Z,23.57
2023-03-27T03:19:44.174Z,23.57
2023-03-27T03:20:14.263Z,23.56
2023-03-27T03:20:44.334Z,23.53
2023-03-27T03:21:14.435Z,23.57
2023-03-27T03:21:44.507Z,23.51
2023-03-27T03:22:14.598Z,23.56
2023-03-27T03:22:44.682Z,23.49
2023-03-27T03:23:14.758Z,23.51
2023-03-27T03:23:58.027Z,23.56
2023-03-27T03:24:14.902Z,23.53
2023-03-27T03:24:44.999Z,23.50
2023-03-27T03:25:15.139Z,23.51
2023-03-27T03:25:45.092Z,23.49
2023-03-27T03:26:15.179Z,23.50
2023-03-27T03:26:45.311Z,23.49
2023-03-27T03:27:15.293Z,23.47
2023-03-27T03:27:45.367Z,23.46
2023-03-27T03:28:15.448Z,23.44
2023-03-27T03:29:01.092Z,23.40
2023-03-27T03:29:15.600Z,23.40
2023-03-27T03:29:45.700Z,23.42
2023-03-27T03:30:17.451Z,23.40
2023-03-27T03:30:45.812Z,23.39
2023-03-27T03:31:15.799Z,23.34
2023-03-27T03:31:45.867Z,23.34
2023-03-27T03:32:15.964Z,23.34
2023-03-27T03:32:46.023Z,23.32
2023-03-27T03:33:16.043Z,23.33
2023-03-27T03:33:46.095Z,23.34
2023-03-27T03:34:16.383Z,23.33
2023-03-27T03:34:46.236Z,23.29
2023-03-27T03:35:16.292Z,23.25
2023-03-27T03:35:46.340Z,23.26
2023-03-27T03:36:16.369Z,23.25
2023-03-27T03:36:46.408Z,23.25
2023-03-27T03:37:16.436Z,23.25
2023-03-27T03:37:46.704Z,23.26
2023-03-27T03:38:16.538Z,23.26
2023-03-27T03:38:46.569Z,23.23
2023-03-27T03:39:16.611Z,23.25
2023-03-27T03:39:46.660Z,23.25
2023-03-27T03:40:16.686Z,23.25
2023-03-27T03:40:46.722Z,23.25
2023-03-27T03:41:16.754Z,23.22
2023-03-27T03:41:46.797Z,23.23
2023-03-27T03:42:22.813Z,23.22
2023-03-27T03:42:46.918Z,23.21
2023-03-27T03:43:17.004Z,23.19
2023-03-27T03:43:47.071Z,23.22
2023-03-27T03:44:17.154Z,23.19
2023-03-27T03:44:47.241Z,23.19
2023-03-27T03:45:17.429Z,23.16
2023-03-27T03:45:47.382Z,23.19
2023-03-27T03:46:17.454Z,23.22
2023-03-27T03:46:47.545Z,23.21
2023-03-27T03:47:17.617Z,23.25
2023-03-27T03:47:47.807Z,23.23
2023-03-27T03:48:17.781Z,23.23
2023-03-27T03:48:47.854Z,23.22
2023-03-27T03:49:17.939Z,23.22
2023-03-27T03:49:48.038Z,23.23
2023-03-27T03:50:18.108Z,23.19
2023-03-27T03:50:48.185Z,23.21
2023-03-27T03:51:18.274Z,23.19
2023-03-27T03:51:48.370Z,23.18
2023-03-27T03:52:18.425Z,23.15
2023-03-27T03:52:48.523Z,23.13
2023-03-27T03:53:18.602Z,23.15
2023-03-27T03:53:48.687Z,23.15
2023-03-27T03:54:18.758Z,23.13
2023-03-27T03:54:48.846Z,23.12
2023-03-27T03:55:18.927Z,23.16
2023-03-27T03:55:49.037Z,23.15
2023-03-27T03:56:19.024Z,23.16
2023-03-27T03:56:49.207Z,23.15
2023-03-27T03:57:19.217Z,23.16
2023-03-27T03:57:49.212Z,23.16
2023-03-27T03:58:19.293Z,23.16
2023-03-27T03:58:49.376Z,23.15
2023-03-27T03:59:19.459Z,23.18
2023-03-27T03:59:49.541Z,23.16
2023-03-27T04:00:19.649Z,23.16
2023-03-27T04:00:49.709Z,23.13
2023-03-27T04:01:19.795Z,23.16
2023-03-27T04:01:49.899Z,23.19
2023-03-27T04:02:20.015Z,23.22
2023-03-27T04:02:50.060Z,23.18
2023-03-27T04:03:20.209Z,23.21
2023-03-27T04:03:50.211Z,23.19
2023-03-27T04:04:20.100Z,23.22
2023-03-27T04:04:50.183Z,23.23
2023-03-27T04:05:20.261Z,23.25
2023-03-27T04:05:50.350Z,23.25
2023-03-27T04:06:20.897Z,23.26
2023-03-27T04:06:50.525Z,23.26
2023-03-27T04:07:20.598Z,23.27
2023-03-27T04:07:50.743Z,23.29
2023-03-27T04:08:20.725Z,23.23
2023-03-27T04:08:50.800Z,23.34
2023-03-27T04:09:20.878Z,23.37
2023-03-27T04:09:50.953Z,23.46
2023-03-27T04:10:21.041Z,23.49
2023-03-27T04:10:51.120Z,23.51
2023-03-27T04:11:21.252Z,23.50
2023-03-27T04:11:51.207Z,23.50
2023-03-27T04:12:21.283Z,23.49
2023-03-27T04:12:51.436Z,23.50
2023-03-27T04:13:21.405Z,23.40
2023-03-27T04:13:51.479Z,23.39
2023-03-27T04:14:21.557Z,23.39
2023-03-27T04:14:51.641Z,23.37
2023-03-27T04:15:21.752Z,23.30
2023-03-27T04:15:51.868Z,23.33
2023-03-27T04:16:21.839Z,23.30
2023-03-27T04:16:51.899Z,23.29
2023-03-27T04:17:22.095Z,23.27
2023-03-27T04:17:52.156Z,23.32
2023-03-27T04:18:22.262Z,23.30
2023-03-27T04:18:52.274Z,23.27
2023-03-27T04:19:22.340Z,23.29
2023-03-27T04:19:52.312Z,23.23
2023-03-27T04:20:22.390Z,23.25
2023-03-27T04:20:52.482Z,23.23
2023-03-27T04:21:22.563Z,23.26
2023-03-27T04:21:52.651Z,23.26
2023-03-27T04:22:22.766Z,23.23
2023-03-27T04:22:54.297Z,23.26
2023-03-27T04:23:22.813Z,23.22
2023-03-27T04:23:52.894Z,23.25
2023-03-27T04:24:22.977Z,23.22
2023-03-27T04:24:53.076Z,23.22
2023-03-27T04:25:23.140Z,23.23
2023-03-27T04:25:53.369Z,23.22
2023-03-27T04:26:23.310Z,23.26
2023-03-27T04:26:53.287Z,23.26
2023-03-27T04:27:23.373Z,23.27
2023-03-27T04:27:53.481Z,23.26
2023-03-27T04:28:23.468Z,23.25
2023-03-27T04:28:53.556Z,23.25
2023-03-27T04:29:23.635Z,23.23
2023-03-27T04:29:53.720Z,23.25
2023-03-27T04:30:23.811Z,23.23
2023-03-27T04:30:53.777Z,23.26
2023-03-27T04:31:23.897Z,23.25
2023-03-27T04:31:53.898Z,23.27
2023-03-27T04:32:23.977Z,23.26
2023-03-27T04:32:54.167Z,23.26
2023-03-27T04:33:24.140Z,23.27
2023-03-27T04:33:54.155Z,23.27
2023-03-27T04:34:24.206Z,23.27
2023-03-27T04:34:54.241Z,23.27
2023-03-27T04:35:24.297Z,23.30
2023-03-27T04:36:06.408Z,23.29
2023-03-27T04:36:24.435Z,23.29
2023-03-27T04:36:54.416Z,23.32
2023-03-27T04:37:24.462Z,23.29
2023-03-27T04:37:54.485Z,23.30
2023-03-27T04:38:24.537Z,23.32
2023-03-27T04:38:54.568Z,23.33
2023-03-27T04:39:24.596Z,23.33
2023-03-27T04:39:54.640Z,23.34
2023-03-27T04:40:24.675Z,23.33
2023-03-27T04:40:55.021Z,23.37
2023-03-27T04:41:24.741Z,23.37
2023-03-27T04:41:54.767Z,23.36
2023-03-27T04:42:24.832Z,23.39
2023-03-27T04:42:54.919Z,23.39
2023-03-27T04:43:25.003Z,23.39
2023-03-27T04:43:55.087Z,23.39
2023-03-27T04:44:25.171Z,23.40
2023-03-27T04:44:55.277Z,23.40
2023-03-27T04:45:25.396Z,23.43
2023-03-27T04:45:55.454Z,23.42
2023-03-27T04:46:25.624Z,23.40
2023-03-27T04:46:55.631Z,23.42
2023-03-27T04:47:25.646Z,23.40
2023-03-27T04:47:55.802Z,23.39
2023-03-27T04:48:25.768Z,23.43
2023-03-27T04:48:55.860Z,23.42
2023-03-27T04:49:25.946Z,23.43
2023-03-27T04:49:56.032Z,23.42
2023-03-27T04:50:26.116Z,23.42
2023-03-27T04:50:56.413Z,23.40
2023-03-27T04:51:26.201Z,23.40
2023-03-27T04:51:56.279Z,23.46
2023-03-27T04:52:26.369Z,23.46
2023-03-27T04:52:56.463Z,23.43
2023-03-27T04:53:26.544Z,23.44
2023-03-27T04:53:56.633Z,23.43
2023-03-27T04:54:26.720Z,23.46
2023-03-27T04:54:56.809Z,23.46
2023-03-27T04:55:26.904Z,23.49
2023-03-27T04:55:56.980Z,23.51
2023-03-27T04:56:27.052Z,23.49
2023-03-27T04:56:57.178Z,23.50
2023-03-27T04:57:27.144Z,23.50
2023-03-27T04:57:57.235Z,23.49
2023-03-27T04:58:27.324Z,23.50
2023-03-27T04:59:36.508Z,23.44
2023-03-27T05:00:06.577Z,23.44
2023-03-27T05:00:36.667Z,23.47
2023-03-27T05:01:06.712Z,23.46
2023-03-27T05:01:36.760Z,23.46
2023-03-27T05:02:06.806Z,23.44
2023-03-27T05:02:36.900Z,23.49
2023-03-27T05:03:06.929Z,23.47
2023-03-27T05:03:36.924Z,23.51
2023-03-27T05:04:06.946Z,23.54
2023-03-27T05:04:36.983Z,23.54
2023-03-27T05:05:07.040Z,23.53
2023-03-27T05:05:37.063Z,23.51
2023-03-27T05:06:07.094Z,23.51
2023-03-27T05:06:39.270Z,23.53
2023-03-27T05:07:07.234Z,23.54
2023-03-27T05:07:37.274Z,23.56
2023-03-27T05:08:07.301Z,23.57
2023-03-27T05:08:37.347Z,23.57
2023-03-27T05:09:07.381Z,23.57
2023-03-27T05:09:37.432Z,23.58
2023-03-27T05:10:07.510Z,23.58
2023-03-27T05:10:37.579Z,23.54
2023-03-27T05:11:07.677Z,23.56
2023-03-27T05:11:37.747Z,23.54
2023-03-27T05:12:07.832Z,23.57
2023-03-27T05:12:37.903Z,23.58
2023-03-27T05:13:07.998Z,23.56
2023-03-27T05:13:38.083Z,23.54
2023-03-27T05:14:08.167Z,23.54
2023-03-27T05:14:38.258Z,23.57
2023-03-27T05:15:08.343Z,23.54
2023-03-27T05:15:38.426Z,23.56
2023-03-27T05:16:08.536Z,23.56
2023-03-27T05:16:38.655Z,23.54
2023-03-27T05:17:08.660Z,23.54
2023-03-27T05:17:38.768Z,23.57
2023-03-27T05:18:09.125Z,23.50
2023-03-27T05:18:41.992Z,23.49
2023-03-27T05:19:08.944Z,23.53
2023-03-27T05:19:39.029Z,23.50
2023-03-27T05:20:09.110Z,23.54
2023-03-27T05:20:39.185Z,23.54
2023-03-27T05:21:09.272Z,23.54
2023-03-27T05:21:39.362Z,23.56
2023-03-27T05:22:09.459Z,23.54
2023-03-27T05:22:39.535Z,23.51
2023-03-27T05:23:09.659Z,23.47
2023-03-27T05:23:39.674Z,23.50
2023-03-27T05:24:09.760Z,23.47
2023-03-27T05:24:39.842Z,23.50
2023-03-27T05:25:09.927Z,23.49
2023-03-27T05:25:40.063Z,23.49
2023-03-27T05:26:10.004Z,23.47
2023-03-27T05:26:40.093Z,23.42
2023-03-27T05:27:10.173Z,23.46
2023-03-27T05:27:40.296Z,23.44
2023-03-27T05:28:10.364Z,23.43
2023-03-27T05:28:40.444Z,23.39
2023-03-27T05:29:10.537Z,23.36
2023-03-27T05:29:46.817Z,23.36
2023-03-27T05:30:10.674Z,23.36
2023-03-27T05:30:40.792Z,23.36
2023-03-27T05:31:10.984Z,23.37
2023-03-27T05:31:40.891Z,23.37
2023-03-27T05:32:10.967Z,23.37
2023-03-27T05:32:41.091Z,23.42
2023-03-27T05:33:11.073Z,23.39
2023-03-27T05:33:41.151Z,23.39
2023-03-27T05:34:11.223Z,23.39
2023-03-27T05:34:41.313Z,23.40
2023-03-27T05:35:11.405Z,23.44
2023-03-27T05:35:41.523Z,23.42
2023-03-27T05:36:11.598Z,23.43
2023-03-27T05:36:41.673Z,23.44
2023-03-27T05:37:11.770Z,23.46
2023-03-27T05:37:41.845Z,23.46
2023-03-27T05:38:11.925Z,23.46
2023-03-27T05:38:42.021Z,23.44
2023-03-27T05:39:12.099Z,23.47
2023-03-27T05:39:42.178Z,23.47
2023-03-27T05:40:12.315Z,23.50
2023-03-27T05:40:42.358Z,23.47
2023-03-27T05:41:12.445Z,23.44
2023-03-27T05:41:42.524Z,23.46
2023-03-27T05:42:12.610Z,23.44
2023-03-27T05:42:42.707Z,23.46
2023-03-27T05:43:12.772Z,23.44
2023-03-27T05:43:42.860Z,23.46
2023-03-27T05:44:12.944Z,23.43
2023-03-27T05:44:43.033Z,23.44
2023-03-27T05:45:13.123Z,23.40
2023-03-27T05:45:43.235Z,23.42
2023-03-27T05:46:13.343Z,23.42
2023-03-27T05:46:43.459Z,23.39
2023-03-27T05:47:13.408Z,23.36
2023-03-27T05:47:43.536Z,23.39
2023-03-27T05:48:13.572Z,23.39
2023-03-27T05:48:43.589Z,23.42
2023-03-27T05:49:13.674Z,23.42
2023-03-27T05:49:43.757Z,23.37
2023-03-27T05:50:13.843Z,23.39
2023-03-27T05:50:43.918Z,23.36
2023-03-27T05:51:14.003Z,23.37
2023-03-27T05:51:47.012Z,23.36
2023-03-27T05:52:14.178Z,23.36
2023-03-27T05:52:44.267Z,23.34
2023-03-27T05:53:14.353Z,23.37
2023-03-27T05:53:44.445Z,23.39
2023-03-27T05:54:14.528Z,23.39
2023-03-27T05:54:44.602Z,23.37
2023-03-27T05:55:14.704Z,23.37
2023-03-27T05:55:44.803Z,23.36
2023-03-27T05:56:14.881Z,23.37
2023-03-27T05:56:44.995Z,23.37
2023-03-27T05:57:15.025Z,23.39
2023-03-27T05:57:44.972Z,23.40
2023-03-27T05:58:15.064Z,23.43
2023-03-27T05:58:45.155Z,23.42
2023-03-27T05:59:15.211Z,23.42
2023-03-27T05:59:45.276Z,23.37
2023-03-27T06:00:15.308Z,23.44
2023-03-27T06:00:45.345Z,23.43
2023-03-27T06:01:15.400Z,23.47
2023-03-27T06:01:45.450Z,23.47
2023-03-27T06:02:15.528Z,23.49
2023-03-27T06:02:45.657Z,23.47
2023-03-27T06:03:15.726Z,23.49
2023-03-27T06:03:45.934Z,23.51
2023-03-27T06:04:15.831Z,23.51
2023-03-27T06:04:45.942Z,23.50
2023-03-27T06:05:15.891Z,23.51
2023-03-27T06:05:45.929Z,23.50
2023-03-27T06:06:15.976Z,23.57
2023-03-27T06:06:46.001Z,23.54
2023-03-27T06:07:16.045Z,23.54
2023-03-27T06:07:46.076Z,23.56
2023-03-27T06:08:16.138Z,23.58
2023-03-27T06:08:46.229Z,23.57
2023-03-27T06:09:16.270Z,23.56
2023-03-27T06:09:46.346Z,23.58
2023-03-27T06:10:16.443Z,23.61
2023-03-27T06:10:46.553Z,23.57
2023-03-27T06:11:16.551Z,23.58
2023-03-27T06:11:46.636Z,23.62
2023-03-27T06:12:16.771Z,23.61
2023-03-27T06:12:48.730Z,23.60
2023-03-27T06:13:16.822Z,23.61
2023-03-27T06:13:46.968Z,23.64
2023-03-27T06:14:16.936Z,23.65
2023-03-27T06:14:47.031Z,23.68
2023-03-27T06:15:17.109Z,23.67
2023-03-27T06:15:47.223Z,23.67
2023-03-27T06:16:17.358Z,23.70
2023-03-27T06:16:47.322Z,23.68
2023-03-27T06:17:17.410Z,23.71
2023-03-27T06:17:47.647Z,23.71
2023-03-27T06:18:17.603Z,23.71
2023-03-27T06:18:47.717Z,23.70
2023-03-27T06:19:17.796Z,23.74
2023-03-27T06:19:47.881Z,23.76
2023-03-27T06:20:17.965Z,23.74
2023-03-27T06:20:48.047Z,23.77
2023-03-27T06:21:18.129Z,23.78
2023-03-27T06:21:48.198Z,23.78
2023-03-27T06:22:18.292Z,23.80
2023-03-27T06:22:48.374Z,23.80
2023-03-27T06:23:18.458Z,23.80
2023-03-27T06:23:48.548Z,23.81
2023-03-27T06:24:18.644Z,23.80
2023-03-27T06:24:48.731Z,23.81
2023-03-27T06:25:18.823Z,23.83
2023-03-27T06:25:48.887Z,23.81
2023-03-27T06:26:18.965Z,23.85
2023-03-27T06:26:49.049Z,23.85
2023-03-27T06:27:19.142Z,23.85
2023-03-27T06:27:49.215Z,23.83
2023-03-27T06:28:19.297Z,23.84
2023-03-27T06:28:49.404Z,23.83
2023-03-27T06:29:19.491Z,23.83
2023-03-27T06:29:49.601Z,23.84
2023-03-27T06:30:19.682Z,23.84
2023-03-27T06:30:49.891Z,23.85
2023-03-27T06:31:20.048Z,23.85
2023-03-27T06:31:49.818Z,23.89
2023-03-27T06:32:19.910Z,23.85
2023-03-27T06:32:50.048Z,23.88
2023-03-27T06:33:20.002Z,23.89
2023-03-27T06:33:50.097Z,23.91
2023-03-27T06:34:20.254Z,23.89